createdAt,value
2023-05-18T00:03:12.571Z,99354.06
2023-05-18T00:08:15.375Z,99358.34
2023-05-18T00:13:20.527Z,99350.13
2023-05-18T00:18:27.282Z,99351.22
2023-05-18T00:23:30.912Z,99362.28
2023-05-18T00:28:35.420Z,99358.00
2023-05-18T00:33:38.244Z,99364.53
2023-05-18T00:38:41.176Z,99360.50
2023-05-18T00:43:46.416Z,99357.16
2023-05-18T00:48:50.764Z,99352.03
2023-05-18T00:53:54.960Z,99350.78
2023-05-18T00:58:59.238Z,99351.78
2023-05-18T01:04:03.103Z,99358.31
2023-05-18T01:09:09.806Z,99363.81
2023-05-18T01:14:18.971Z,99359.00
2023-05-18T01:19:53.866Z,99352.47
2023-05-18T01:25:04.747Z,99359.66
2023-05-18T01:30:11.478Z,99355.78
2023-05-18T01:35:14.558Z,99360.34
2023-05-18T01:40:17.570Z,99362.19
2023-05-18T01:45:24.605Z,99360.94
2023-05-18T01:50:37.837Z,99348.88
2023-05-18T01:55:42.506Z,99353.53
2023-05-18T02:00:47.849Z,99352.81
2023-05-18T02:05:50.706Z,99349.47
2023-05-18T02:10:53.739Z,99355.31
2023-05-18T02:15:58.270Z,99354.53
2023-05-18T02:21:01.736Z,99351.19
2023-05-18T02:26:04.553Z,99349.81
2023-05-18T02:31:09.951Z,99353.53
2023-05-18T02:36:15.123Z,99348.47
2023-05-18T02:41:17.954Z,99350.75
2023-05-18T02:46:22.535Z,99353.38
2023-05-18T02:51:26.722Z,99359.91
2023-05-18T02:56:29.956Z,99364.63
2023-05-18T03:01:42.997Z,99358.81
2023-05-18T03:06:47.294Z,99355.53
2023-05-18T03:11:51.703Z,99361.81
2023-05-18T03:16:57.833Z,99352.34
2023-05-18T03:22:00.847Z,99354.25
2023-05-18T03:27:04.276Z,99356.16
2023-05-18T03:32:09.204Z,99366.16
2023-05-18T03:37:12.925Z,99366.91
2023-05-18T03:42:15.812Z,99366.91
2023-05-18T03:47:22.115Z,99365.44
2023-05-18T03:52:25.218Z,99361.97
2023-05-18T03:57:29.291Z,99361.88
2023-05-18T04:02:37.062Z,99362.94
2023-05-18T04:07:46.484Z,99364.31
2023-05-18T04:12:49.370Z,99373.75
2023-05-18T04:17:54.207Z,99368.22
2023-05-18T04:22:58.397Z,99374.88
2023-05-18T04:28:01.593Z,99367.31
2023-05-18T04:33:06.661Z,99374.91
2023-05-18T04:38:10.716Z,99376.94
2023-05-18T04:43:13.589Z,99377.28
2023-05-18T04:48:19.436Z,99373.28
2023-05-18T04:53:23.476Z,99373.66
2023-05-18T04:58:28.706Z,99381.94
2023-05-18T05:03:34.708Z,99379.44
2023-05-18T05:08:38.613Z,99389.03
2023-05-18T05:13:41.533Z,99375.16
2023-05-18T05:18:47.296Z,99371.31
2023-05-18T05:23:51.480Z,99370.06
2023-05-18T05:28:54.421Z,99375.81
2023-05-18T05:34:00.131Z,99381.84
2023-05-18T05:39:03.695Z,99378.16
2023-05-18T05:44:07.403Z,99383.28
2023-05-18T05:49:11.637Z,99382.25
2023-05-18T05:54:15.585Z,99381.84
2023-05-18T05:59:18.638Z,99383.72
2023-05-18T06:04:23.077Z,99383.56
2023-05-18T06:09:27.673Z,99388.78
2023-05-18T06:14:30.896Z,99391.72
2023-05-18T06:19:35.801Z,99393.91
2023-05-18T06:24:38.899Z,99387.03
2023-05-18T06:30:00.566Z,99396.22
2023-05-18T06:35:27.453Z,99404.53
2023-05-18T06:40:30.254Z,99415.78
2023-05-18T06:45:36.833Z,99412.66
2023-05-18T06:50:52.071Z,99411.19
2023-05-18T06:55:55.077Z,99406.88
2023-05-18T07:00:57.988Z,99409.75
2023-05-18T07:06:03.772Z,99412.44
2023-05-18T07:11:08.466Z,99417.69
2023-05-18T07:16:11.360Z,99403.03
2023-05-18T07:21:15.704Z,99406.69
2023-05-18T07:26:18.943Z,99411.22
2023-05-18T07:31:22.816Z,99404.16
2023-05-18T07:36:29.573Z,99406.44
2023-05-18T07:41:32.440Z,99406.22
2023-05-18T07:46:35.764Z,99407.06
2023-05-18T07:51:42.018Z,99397.66
2023-05-18T07:56:47.468Z,99395.09
2023-05-18T08:01:50.278Z,99396.41
2023-05-18T08:06:54.895Z,99389.88
2023-05-18T08:11:58.740Z,99394.06
2023-05-18T08:17:05.608Z,99391.75
2023-05-18T08:22:09.880Z,99381.28
2023-05-18T08:27:12.713Z,99390.22
2023-05-18T08:32:15.514Z,99378.69
2023-05-18T08:37:19.819Z,99375.88
2023-05-18T08:42:41.588Z,99379.16
2023-05-18T08:47:52.336Z,99378.00
2023-05-18T08:53:01.782Z,99383.38
2023-05-18T08:58:07.383Z,99388.63
2023-05-18T09:03:11.528Z,99374.91
2023-05-18T09:08:16.034Z,99384.84
2023-05-18T09:13:20.748Z,99371.44
2023-05-18T09:18:25.509Z,99368.31
2023-05-18T09:23:31.792Z,99362.91
2023-05-18T09:28:37.779Z,99362.63
2023-05-18T09:33:41.491Z,99365.75
2023-05-18T09:38:47.850Z,99363.91
2023-05-18T09:43:52.407Z,99350.00
2023-05-18T09:48:56.631Z,99352.28
2023-05-18T09:54:07.955Z,99348.44
2023-05-18T09:59:12.559Z,99346.28
2023-05-18T10:04:15.472Z,99348.34
2023-05-18T10:09:19.885Z,99344.97
2023-05-18T10:14:25.200Z,99339.53
2023-05-18T10:19:29.345Z,99337.84
2023-05-18T10:24:36.820Z,99336.78
2023-05-18T10:29:41.241Z,99334.94
2023-05-18T10:34:44.654Z,99334.75
2023-05-18T10:39:51.698Z,99325.06
2023-05-18T10:44:55.781Z,99318.31
2023-05-18T10:50:00.036Z,99328.81
2023-05-18T10:55:05.177Z,99330.97
2023-05-18T11:00:10.977Z,99321.56
2023-05-18T11:05:14.894Z,99315.66
2023-05-18T11:10:19.136Z,99308.47
2023-05-18T11:15:21.989Z,99298.19
2023-05-18T11:20:26.860Z,99306.03
2023-05-18T11:25:43.439Z,99306.69
2023-05-18T11:30:50.277Z,99295.63
2023-05-18T11:36:08.459Z,99299.66
2023-05-18T11:41:28.764Z,99291.69
2023-05-18T11:46:31.646Z,99290.03
2023-05-18T11:51:35.204Z,99282.47
2023-05-18T11:56:42.306Z,99275.94
2023-05-18T12:01:45.314Z,99279.28
2023-05-18T12:06:48.203Z,99278.19
2023-05-18T12:11:53.343Z,99273.22
2023-05-18T12:16:59.857Z,99273.75
2023-05-18T12:22:02.898Z,99267.28
2023-05-18T12:27:09.558Z,99257.28
2023-05-18T12:32:14.805Z,99256.50
2023-05-18T12:37:17.981Z,99258.66
2023-05-18T12:42:22.771Z,99250.31
2023-05-18T12:47:26.534Z,99244.56
2023-05-18T12:52:29.969Z,99243.72
2023-05-18T12:57:41.496Z,99236.50
2023-05-18T13:02:44.358Z,99246.41
2023-05-18T13:07:47.575Z,99238.00
2023-05-18T13:12:54.109Z,99232.44
2023-05-18T13:17:59.146Z,99231.84
2023-05-18T13:23:05.013Z,99226.69
2023-05-18T13:28:11.061Z,99225.03
2023-05-18T13:33:15.063Z,99216.59
2023-05-18T13:38:18.730Z,99211.81
2023-05-18T13:43:22.925Z,99217.31
2023-05-18T13:48:27.710Z,99215.19
2023-05-18T13:53:30.663Z,99205.03
2023-05-18T13:58:36.160Z,99203.69
2023-05-18T14:03:40.691Z,99197.13
2023-05-18T14:08:43.596Z,99190.66
2023-05-18T14:13:48.117Z,99185.88
2023-05-18T14:18:50.949Z,99183.44
2023-05-18T14:23:53.868Z,99170.41
2023-05-18T14:28:58.016Z,99171.94
2023-05-18T14:34:00.994Z,99181.59
2023-05-18T14:39:04.737Z,99168.16
2023-05-18T14:44:09.957Z,99173.72
2023-05-18T14:49:14.710Z,99163.88
2023-05-18T14:54:18.976Z,99163.22
2023-05-18T14:59:24.074Z,99165.66
2023-05-18T15:04:26.925Z,99169.53
2023-05-18T15:09:29.723Z,99157.59
2023-05-18T15:14:33.905Z,99155.47
2023-05-18T15:19:36.991Z,99158.75
2023-05-18T15:24:40.124Z,99156.66
2023-05-18T15:29:44.257Z,99163.66
2023-05-18T15:34:47.117Z,99154.88
2023-05-18T15:39:50.198Z,99151.66
2023-05-18T15:44:54.367Z,99150.22
2023-05-18T15:49:58.090Z,99148.31
2023-05-18T15:55:01.097Z,99144.16
2023-05-18T16:00:06.334Z,99153.13
2023-05-18T16:05:14.537Z,99145.88
2023-05-18T16:10:18.522Z,99151.84
2023-05-18T16:15:24.664Z,99151.03
2023-05-18T16:20:27.469Z,99145.50
2023-05-18T16:25:30.388Z,99146.00
2023-05-18T16:30:34.747Z,99153.28
2023-05-18T16:35:37.947Z,99143.75
2023-05-18T16:40:40.799Z,99150.22
2023-05-18T16:45:45.133Z,99157.03
2023-05-18T16:50:49.333Z,99153.34
2023-05-18T16:55:52.282Z,99144.38
2023-05-18T17:00:57.324Z,99147.41
2023-05-18T17:06:00.169Z,99144.59
2023-05-18T17:11:03.306Z,99143.75
2023-05-18T17:16:09.982Z,99147.50
2023-05-18T17:21:13.976Z,99150.75
2023-05-18T17:26:20.249Z,99147.00
2023-05-18T17:31:27.612Z,99148.47
2023-05-18T17:36:31.339Z,99147.13
2023-05-18T17:41:34.404Z,99141.06
2023-05-18T17:46:39.363Z,99140.03
2023-05-18T17:51:44.360Z,99147.09
2023-05-18T17:56:47.361Z,99142.19
2023-05-18T18:01:52.391Z,99146.75
2023-05-18T18:06:55.321Z,99153.09
2023-05-18T18:11:58.247Z,99146.56
2023-05-18T18:17:04.656Z,99151.38
2023-05-18T18:22:08.332Z,99139.06
2023-05-18T18:27:11.747Z,99146.97
2023-05-18T18:32:16.706Z,99158.97
2023-05-18T18:37:22.398Z,99160.81
2023-05-18T18:42:25.251Z,99168.31
2023-05-18T18:47:29.566Z,99163.31
2023-05-18T18:52:32.630Z,99168.66
2023-05-18T18:57:35.600Z,99176.88
2023-05-18T19:02:39.845Z,99181.72
2023-05-18T19:07:42.759Z,99185.66
2023-05-18T19:12:45.577Z,99194.88
2023-05-18T19:17:53.777Z,99192.00
2023-05-18T19:22:57.473Z,99194.09
2023-05-18T19:28:01.438Z,99203.72
2023-05-18T19:33:07.473Z,99209.56
2023-05-18T19:38:10.675Z,99224.75
2023-05-18T19:43:13.560Z,99222.81
2023-05-18T19:48:18.378Z,99225.69
2023-05-18T19:53:22.843Z,99225.34
2023-05-18T19:58:26.341Z,99226.03
2023-05-18T20:03:31.517Z,99224.38
2023-05-18T20:08:36.209Z,99233.91
2023-05-18T20:13:39.573Z,99236.09
2023-05-18T20:18:46.065Z,99225.44
2023-05-18T20:23:50.099Z,99226.56
2023-05-18T20:28:53.016Z,99233.03
2023-05-18T20:33:57.923Z,99236.59
2023-05-18T20:39:00.804Z,99243.41
2023-05-18T20:44:03.853Z,99260.19
2023-05-18T20:49:09.273Z,99252.44
2023-05-18T20:54:13.182Z,99255.13
2023-05-18T20:59:16.750Z,99259.00
2023-05-18T21:04:21.018Z,99264.59
2023-05-18T21:09:24.338Z,99266.03
2023-05-18T21:14:27.096Z,99265.44
2023-05-18T21:19:31.366Z,99267.13
2023-05-18T21:24:34.339Z,99266.03
2023-05-18T21:29:37.614Z,99258.09
2023-05-18T21:34:43.816Z,99260.44
2023-05-18T21:39:46.947Z,99253.25
2023-05-18T21:44:50.015Z,99259.06
2023-05-18T21:49:54.306Z,99256.84
2023-05-18T21:54:57.452Z,99261.56
2023-05-18T22:00:00.461Z,99266.19
2023-05-18T22:05:04.796Z,99273.47
2023-05-18T22:10:09.589Z,99259.50
2023-05-18T22:15:13.629Z,99259.84
2023-05-18T22:20:17.861Z,99261.41
2023-05-18T22:25:22.130Z,99255.34
2023-05-18T22:30:25.073Z,99253.13
2023-05-18T22:35:29.470Z,99244.25
2023-05-18T22:40:32.523Z,99248.13
2023-05-18T22:45:36.216Z,99254.56
2023-05-18T22:50:40.350Z,99256.13
2023-05-18T22:55:43.339Z,99251.97
2023-05-18T23:00:46.173Z,99247.94
2023-05-18T23:05:50.296Z,99243.81
2023-05-18T23:10:53.713Z,99242.25
2023-05-18T23:15:57.655Z,99238.06
2023-05-18T23:21:03.003Z,99234.91
2023-05-18T23:26:05.894Z,99235.03
2023-05-18T23:31:08.644Z,99233.91
2023-05-18T23:36:14.730Z,99232.16
2023-05-18T23:41:18.651Z,99231.28
2023-05-18T23:46:22.109Z,99228.63
2023-05-18T23:51:29.811Z,99241.53
2023-05-18T23:56:33.198Z,99235.31
